Portada
METAR-TAF:

METAR-TAF

Aeroports :

Fort-de-France, Martinica

latitud: 14-36N, longitud: 061-00W, altitud: 5 m

Observació

L'informe es va fer fa 14 minuts, a les 22:30 UTC
Vent 8 kt del Est
Temperatura 27°C
Humitat 74%
Pressió 1016 hPa
Visibilitat 10 km o més
Escasses núvols a una alçada de 300 ft

METAR: TFFF 232230Z AUTO 09008KT 9999 FEW003 27/22 Q1016 TEMPO 4000 SHRA SCT020TCU

Hora: 18:44 (22:44 UTC)

Pronòstic

L'informe es va fer fa 6 hores i 44 minuts, a les 16:00 UTC
Pronòstic vàlid del 23 a les 18 UTC al 24 a les 18 UTC
Vent 16 kt del Est/Sud-Est
Visibilitat 10 km o més
Núvols disperses a una alçada de 2200 ft
Núvols disperses a una alçada de 4000 ft
Probabilitat 30% :
Temporalment
l' 23 a les 18 UTC al 24 a les 18 UTC
Visibilitat: 4000 m
Núvols disperses a una alçada de 2000 ft, Cumulus congestus.
xàfecs de pluja

TAF: TFFF 231600Z 2318/2418 11016KT 9999 SCT022 SCT040 PROB30 TEMPO 2318/2418 4000 SHRA SCT020TCU

Observacions i pronòstics meteorològics de més de 4000 aeroports (METAR i TAF).

Les estacions disponibles són els punts grocs i vermells al mapa.

Posi el ratolí al punt desitjat per veure el nom de l'estació.

Feu clic per veure les observacions i els pronòstics meteorològics.

Per canviar el mapa: feu clic els botons verds amb una creu de color negre per apropar; al botó verd amb un guió per allunyar la imatge; o en les fletxes verdes per a mapes adjacents.


METAR-TAF: